Time;durP1;ratioP1;P1;durP2;ratioP2;P2;SDS_P1;SDS_P2;PMS_P1;PMS_P2;Temp;Humidity;BMP_temperature;BMP_pressure;BME280_temperature;BME280_humidity;BME280_pressure;Samples;Min_cycle;Max_cycle;Signal;HPM_P1;HPM_P2
2022/01/26 00:07:50;;;;;;;21.33;8.80;;;2.80;97.30;;;;;;5097258;28;20395;-86
2022/01/26 00:10:15;;;;;;;31.63;8.30;;;2.80;97.30;;;;;;5075611;28;20440;-87
2022/01/26 00:12:41;;;;;;;19.90;8.73;;;2.80;97.30;;;;;;5074440;28;20351;-86
2022/01/26 00:15:07;;;;;;;21.13;8.27;;;2.80;97.30;;;;;;5074239;28;20178;-87
2022/01/26 00:17:32;;;;;;;19.47;6.60;;;2.80;97.30;;;;;;5073806;28;20206;-86
2022/01/26 00:20:08;;;;;;;17.70;7.03;;;2.80;97.30;;;;;;5074210;28;20440;-87
2022/01/26 00:22:52;;;;;;;17.73;6.40;;;2.80;97.30;;;;;;5074392;28;20255;-87
2022/01/26 00:25:33;;;;;;;18.73;5.97;;;2.80;97.30;;;;;;5074156;28;20778;-86
2022/01/26 00:38:48;;;;;;;19.57;5.30;;;2.60;97.30;;;;;;5096229;28;20392;-86
2022/01/26 00:41:18;;;;;;;22.40;5.67;;;2.60;97.30;;;;;;5077274;28;20826;-86
2022/01/26 00:43:51;;;;;;;24.87;6.97;;;2.60;97.30;;;;;;5077797;28;20474;-87
2022/01/26 00:46:17;;;;;;;18.57;6.83;;;2.60;97.30;;;;;;5078014;28;20436;-87
2022/01/26 00:48:44;;;;;;;18.80;6.50;;;2.50;97.30;;;;;;5077814;28;20416;-86
2022/01/26 00:51:11;;;;;;;19.47;7.17;;;2.50;97.30;;;;;;5077395;28;20433;-86
2022/01/26 00:53:50;;;;;;;19.90;6.60;;;2.60;97.30;;;;;;5077771;28;20930;-86
2022/01/26 00:56:16;;;;;;;19.77;6.67;;;2.60;97.30;;;;;;5077519;28;20444;-86
2022/01/26 00:58:42;;;;;;;19.40;6.77;;;2.60;97.30;;;;;;5077683;28;20460;-87
2022/01/26 01:01:08;;;;;;;17.17;6.50;;;2.60;97.30;;;;;;5077372;28;20520;-87
2022/01/26 01:03:36;;;;;;;28.97;7.90;;;2.50;97.30;;;;;;5095252;28;20427;-86
2022/01/26 01:06:09;;;;;;;21.90;6.90;;;2.60;97.30;;;;;;5058066;28;20262;-86
2022/01/26 01:08:35;;;;;;;21.33;7.07;;;2.60;97.30;;;;;;5057501;28;20700;-87
2022/01/26 01:11:00;;;;;;;26.97;7.53;;;2.60;97.30;;;;;;5057190;28;20436;-87
2022/01/26 01:13:37;;;;;;;29.63;8.03;;;2.50;97.30;;;;;;5055531;28;20633;-86
2022/01/26 01:16:05;;;;;;;21.30;7.13;;;2.60;97.30;;;;;;5054533;28;20234;-86
2022/01/26 01:18:41;;;;;;;15.40;7.70;;;2.50;97.30;;;;;;5073156;28;20405;-87
2022/01/26 01:29:17;;;;;;;19.50;6.17;;;2.50;97.30;;;;;;5072932;28;20417;-86
2022/01/26 01:31:53;;;;;;;19.93;6.53;;;2.50;97.30;;;;;;5072552;28;20941;-87
2022/01/26 01:34:28;;;;;;;13.60;6.03;;;2.50;97.30;;;;;;5056551;28;20428;-86
2022/01/26 01:36:55;;;;;;;18.57;7.03;;;2.50;97.30;;;;;;5089432;28;20452;-87
2022/01/26 01:39:21;;;;;;;22.13;8.53;;;2.60;97.30;;;;;;5092158;28;20467;-87
2022/01/26 01:41:49;;;;;;;20.13;6.33;;;2.50;97.30;;;;;;5095217;28;20423;-85
2022/01/26 01:44:16;;;;;;;23.33;6.63;;;2.50;97.30;;;;;;5077614;28;20421;-87
2022/01/26 01:46:42;;;;;;;24.50;9.33;;;2.50;97.30;;;;;;5076933;28;20411;-86
2022/01/26 01:49:10;;;;;;;24.97;8.20;;;2.50;97.30;;;;;;5076484;28;20949;-86
2022/01/26 01:51:39;;;;;;;25.83;8.33;;;2.50;97.30;;;;;;5076529;28;20413;-87
2022/01/26 01:54:13;;;;;;;18.70;6.83;;;2.40;97.30;;;;;;5076548;28;21001;-87
2022/01/26 01:56:41;;;;;;;22.47;6.37;;;2.40;97.30;;;;;;5076288;28;20464;-86
2022/01/26 01:59:07;;;;;;;21.80;7.23;;;2.40;97.30;;;;;;5094279;28;20408;-86
2022/01/26 02:01:32;;;;;;;20.03;7.40;;;2.40;97.30;;;;;;5076486;28;20427;-86
2022/01/26 02:03:58;;;;;;;26.93;8.60;;;2.40;97.30;;;;;;5076220;28;20633;-86
2022/01/26 02:06:23;;;;;;;13.53;5.80;;;2.40;97.30;;;;;;5076467;28;20266;-86
2022/01/26 02:08:49;;;;;;;22.37;8.30;;;2.40;97.30;;;;;;5076206;28;20190;-86
2022/01/26 02:11:15;;;;;;;17.97;6.57;;;2.50;97.30;;;;;;5075899;28;20198;-86
2022/01/26 02:13:55;;;;;;;21.80;7.23;;;2.40;97.30;;;;;;5076226;28;20179;-86
2022/01/26 02:16:28;;;;;;;19.23;6.70;;;2.40;97.30;;;;;;5094945;28;20546;-87
2022/01/26 02:22:03;;;;;;;24.73;7.60;;;2.40;97.30;;;;;;5094428;28;20443;-86
2022/01/26 02:49:38;;;;;;;31.73;9.10;;;2.40;97.30;;;;;;5092940;28;20442;-86
2022/01/26 02:52:13;;;;;;;32.03;8.73;;;2.40;97.30;;;;;;5092821;28;20416;-87
2022/01/26 02:54:49;;;;;;;29.87;8.80;;;2.40;97.30;;;;;;5075788;28;20409;-86
2022/01/26 03:02:59;;;;;;;31.73;8.97;;;2.40;97.30;;;;;;5092899;28;20473;-87
2022/01/26 03:05:31;;;;;;;35.17;9.97;;;2.30;97.30;;;;;;5074870;28;20447;-85
2022/01/26 03:08:02;;;;;;;42.33;10.33;;;2.30;97.30;;;;;;5093218;28;20408;-86
2022/01/26 03:13:29;;;;;;;37.90;10.53;;;2.30;97.30;;;;;;5058711;28;20417;-87
2022/01/26 03:16:01;;;;;;;35.47;10.30;;;2.30;97.30;;;;;;5074662;28;20570;-87
2022/01/26 03:20:58;;;;;;;26.93;9.07;;;2.30;97.30;;;;;;5093263;28;20428;-86
2022/01/26 03:34:07;;;;;;;35.53;10.00;;;2.30;97.30;;;;;;5093179;28;20440;-86
2022/01/26 03:36:43;;;;;;;39.37;10.20;;;2.30;97.30;;;;;;5092700;28;20620;-86
2022/01/26 03:39:10;;;;;;;32.17;10.53;;;2.30;97.30;;;;;;5074073;28;20890;-85
2022/01/26 03:41:41;;;;;;;38.30;10.13;;;2.30;97.30;;;;;;5074611;28;20412;-86
2022/01/26 03:44:07;;;;;;;42.97;10.00;;;2.30;97.30;;;;;;5074555;28;20409;-86
2022/01/26 03:46:33;;;;;;;35.07;9.60;;;2.30;97.30;;;;;;5074587;28;20420;-87
2022/01/26 03:49:00;;;;;;;45.00;11.70;;;2.30;97.30;;;;;;5074623;28;20417;-86
2022/01/26 03:51:25;;;;;;;44.70;10.20;;;2.30;97.30;;;;;;5074375;28;20432;-86
2022/01/26 03:53:51;;;;;;;42.97;10.60;;;2.30;97.30;;;;;;5092803;28;20557;-86
2022/01/26 03:56:16;;;;;;;45.53;11.77;;;2.30;97.30;;;;;;5078315;28;20233;-87
2022/01/26 03:58:42;;;;;;;38.27;10.20;;;2.20;97.30;;;;;;5075536;28;20178;-87
2022/01/26 04:01:07;;;;;;;53.50;11.90;;;2.20;97.30;;;;;;5074141;28;20190;-86
2022/01/26 04:03:33;;;;;;;38.70;11.40;;;2.20;97.30;;;;;;5092481;28;20170;-86
2022/01/26 04:05:58;;;;;;;38.37;12.77;;;2.20;97.30;;;;;;5074357;28;20178;-86
2022/01/26 04:08:28;;;;;;;47.47;10.43;;;2.20;97.30;;;;;;5074605;28;20647;-86
2022/01/26 04:13:20;;;;;;;41.37;10.30;;;2.20;97.30;;;;;;5092527;28;20416;-86
2022/01/26 04:15:46;;;;;;;44.83;11.07;;;2.30;97.30;;;;;;5074350;28;20464;-86
2022/01/26 04:18:16;;;;;;;47.37;11.20;;;2.20;97.30;;;;;;5092338;28;20175;-86
2022/01/26 04:20:46;;;;;;;45.23;12.63;;;2.30;97.30;;;;;;5074746;28;20289;-86
2022/01/26 04:25:39;;;;;;;39.37;11.10;;;2.20;97.30;;;;;;5092919;28;20404;-87
2022/01/26 04:28:09;;;;;;;38.07;12.47;;;2.20;97.30;;;;;;5092271;28;20257;-87
2022/01/26 04:30:34;;;;;;;47.67;12.30;;;2.20;97.30;;;;;;5074282;28;20437;-88
2022/01/26 04:33:04;;;;;;;39.20;10.57;;;2.30;97.30;;;;;;5074490;28;20423;-87
2022/01/26 04:35:30;;;;;;;31.57;9.73;;;2.20;97.30;;;;;;5074508;28;20259;-87
2022/01/26 04:38:16;;;;;;;32.00;9.87;;;2.20;97.30;;;;;;5079451;28;20408;-87
2022/01/26 04:40:57;;;;;;;37.67;10.47;;;2.20;97.30;;;;;;5074873;28;20468;-87
2022/01/26 04:43:27;;;;;;;33.73;9.57;;;2.20;97.30;;;;;;5077059;28;20419;-87
2022/01/26 04:45:52;;;;;;;38.27;11.83;;;2.20;97.30;;;;;;5085780;28;20851;-87
2022/01/26 04:48:19;;;;;;;43.77;10.07;;;2.20;97.30;;;;;;5092210;28;20489;-87
2022/01/26 04:50:45;;;;;;;43.37;10.80;;;2.20;97.30;;;;;;5073695;28;20191;-87
2022/01/26 04:53:10;;;;;;;39.53;9.27;;;2.20;97.30;;;;;;5091781;28;20910;-87
2022/01/26 04:55:36;;;;;;;48.90;12.40;;;2.20;97.30;;;;;;5073576;28;20462;-87
2022/01/26 04:58:01;;;;;;;37.90;10.80;;;2.20;97.30;;;;;;5074070;28;20244;-87
2022/01/26 05:00:27;;;;;;;33.83;10.57;;;2.20;97.30;;;;;;5091894;28;20190;-87
2022/01/26 05:02:52;;;;;;;49.57;9.80;;;2.20;97.30;;;;;;5074020;28;20427;-87
2022/01/26 05:05:18;;;;;;;46.23;11.13;;;2.20;97.30;;;;;;5073882;28;20201;-87
2022/01/26 05:07:44;;;;;;;46.23;10.97;;;2.20;97.30;;;;;;5073877;28;20278;-87
2022/01/26 05:10:09;;;;;;;43.70;11.53;;;2.20;97.30;;;;;;5091983;28;20186;-86
2022/01/26 05:12:36;;;;;;;39.13;10.50;;;2.20;97.30;;;;;;5093218;28;20175;-86
2022/01/26 05:15:03;;;;;;;30.87;10.20;;;2.20;97.30;;;;;;5077701;28;20326;-87
2022/01/26 05:17:28;;;;;;;35.43;10.57;;;2.20;97.30;;;;;;5077427;28;20539;-86
2022/01/26 05:19:57;;;;;;;37.57;12.20;;;2.20;97.30;;;;;;5095449;28;21001;-86
2022/01/26 05:22:23;;;;;;;32.80;9.40;;;2.20;97.30;;;;;;5079885;28;20177;-86
2022/01/26 05:24:48;;;;;;;34.07;9.00;;;2.20;97.30;;;;;;5077650;28;20417;-87
2022/01/26 05:27:14;;;;;;;35.07;8.80;;;2.20;97.30;;;;;;5077344;28;20178;-86
2022/01/26 05:29:40;;;;;;;28.10;9.33;;;2.20;97.30;;;;;;5077245;28;20205;-85
2022/01/26 05:32:06;;;;;;;28.03;9.13;;;2.20;97.30;;;;;;5094457;28;20261;-86
2022/01/26 05:34:32;;;;;;;35.60;10.03;;;2.20;97.30;;;;;;5072445;28;20433;-86
2022/01/26 05:36:57;;;;;;;48.73;9.53;;;2.10;97.30;;;;;;5074375;28;20551;-86
2022/01/26 05:39:23;;;;;;;28.30;8.63;;;2.20;97.30;;;;;;5077338;28;20253;-87
2022/01/26 05:41:48;;;;;;;28.47;10.63;;;2.20;97.30;;;;;;5076709;28;20174;-87
2022/01/26 05:44:14;;;;;;;29.67;7.53;;;2.20;97.30;;;;;;5076994;28;20182;-87
2022/01/26 05:46:48;;;;;;;32.20;9.10;;;2.20;97.30;;;;;;5076905;28;20175;-88
2022/01/26 05:49:16;;;;;;;28.03;9.07;;;2.10;97.30;;;;;;5095368;28;20237;-86
2022/01/26 05:51:45;;;;;;;27.17;8.40;;;2.20;97.30;;;;;;5076715;28;20926;-86
2022/01/26 05:54:11;;;;;;;38.17;8.23;;;2.20;97.30;;;;;;5076701;28;20840;-85
2022/01/26 05:56:36;;;;;;;29.77;9.20;;;2.20;97.30;;;;;;5094150;28;20801;-87
2022/01/26 05:59:06;;;;;;;31.17;8.47;;;2.20;97.30;;;;;;5075801;28;20503;-86
2022/01/26 06:01:43;;;;;;;32.20;9.33;;;2.10;97.30;;;;;;5094896;28;20679;-86
2022/01/26 06:04:08;;;;;;;27.50;7.57;;;2.10;97.30;;;;;;5076589;28;20404;-87
2022/01/26 06:06:34;;;;;;;29.07;8.10;;;2.10;97.30;;;;;;5076080;28;20420;-86
2022/01/26 06:08:59;;;;;;;27.90;8.17;;;2.10;97.30;;;;;;5076668;28;20171;-86
2022/01/26 06:11:25;;;;;;;29.07;8.60;;;2.10;97.30;;;;;;5076196;28;20194;-86
2022/01/26 06:13:50;;;;;;;33.53;9.13;;;2.10;97.30;;;;;;5076159;28;20166;-87
2022/01/26 06:16:16;;;;;;;28.67;8.27;;;2.10;97.30;;;;;;5094141;28;20230;-87
2022/01/26 06:18:43;;;;;;;27.17;8.27;;;2.10;97.30;;;;;;5076499;28;20182;-87
2022/01/26 06:21:10;;;;;;;23.50;7.30;;;2.10;97.30;;;;;;5076302;28;20190;-87
2022/01/26 06:23:35;;;;;;;22.87;7.60;;;2.10;97.30;;;;;;5075035;28;20427;-86
2022/01/26 06:26:00;;;;;;;21.90;8.17;;;2.00;97.30;;;;;;5075628;28;21051;-87
2022/01/26 06:28:27;;;;;;;23.80;8.00;;;2.00;97.30;;;;;;5075949;28;20552;-86
2022/01/26 06:31:03;;;;;;;32.67;9.00;;;2.00;97.30;;;;;;5076127;28;20544;-85
2022/01/26 06:33:33;;;;;;;26.27;8.20;;;2.00;97.30;;;;;;5075722;28;20416;-86
2022/01/26 06:36:00;;;;;;;28.10;7.27;;;2.00;97.30;;;;;;5075806;28;20455;-86
2022/01/26 06:38:27;;;;;;;25.37;8.20;;;2.00;97.30;;;;;;5075666;28;20512;-87
2022/01/26 06:40:57;;;;;;;24.87;7.67;;;2.00;97.30;;;;;;5093709;28;20464;-87
2022/01/26 06:43:26;;;;;;;19.17;6.47;;;2.00;97.30;;;;;;5075582;28;20423;-87
2022/01/26 06:45:58;;;;;;;30.37;7.87;;;2.00;97.30;;;;;;5075710;28;20420;-86
2022/01/26 06:51:09;;;;;;;29.13;8.23;;;2.00;97.30;;;;;;5093471;28;20433;-87
2022/01/26 06:53:35;;;;;;;23.00;7.97;;;2.00;97.30;;;;;;5093683;28;20967;-87
2022/01/26 06:56:00;;;;;;;28.60;8.90;;;2.00;97.30;;;;;;5075544;28;20482;-87
2022/01/26 06:58:26;;;;;;;32.73;10.60;;;1.90;97.30;;;;;;5075368;28;20198;-87
2022/01/26 07:00:51;;;;;;;31.80;9.87;;;1.90;97.30;;;;;;5075340;28;20202;-87
2022/01/26 07:03:17;;;;;;;25.73;8.47;;;1.90;97.30;;;;;;5093599;28;20257;-87
2022/01/26 07:05:43;;;;;;;23.97;7.77;;;1.90;97.30;;;;;;5075524;28;20239;-85
2022/01/26 07:08:09;;;;;;;23.17;7.93;;;2.00;97.30;;;;;;5076002;28;20178;-86
2022/01/26 07:10:34;;;;;;;25.53;8.63;;;2.00;97.30;;;;;;5075310;28;20433;-87
2022/01/26 07:13:02;;;;;;;32.20;8.87;;;2.00;97.30;;;;;;5075059;28;20174;-87
2022/01/26 07:23:42;;;;;;;29.93;8.70;;;1.90;97.30;;;;;;5093937;28;20404;-85
2022/01/26 07:26:08;;;;;;;28.43;9.10;;;2.00;97.30;;;;;;5093327;28;20413;-86
2022/01/26 07:28:37;;;;;;;28.90;7.80;;;2.00;97.30;;;;;;5074986;28;20185;-86
2022/01/26 07:31:04;;;;;;;30.83;8.33;;;2.00;97.30;;;;;;5075302;28;20214;-86
2022/01/26 07:33:31;;;;;;;32.13;9.30;;;2.00;97.30;;;;;;5074693;28;20417;-86
2022/01/26 07:35:57;;;;;;;28.23;8.23;;;2.00;97.30;;;;;;5055798;28;20449;-86
2022/01/26 07:38:22;;;;;;;29.77;9.63;;;2.00;97.30;;;;;;5072466;28;20409;-86
2022/01/26 07:40:48;;;;;;;40.37;9.43;;;2.00;97.30;;;;;;5072734;28;20237;-87
2022/01/26 07:43:15;;;;;;;29.73;8.50;;;2.00;97.30;;;;;;5072235;28;20222;-87
2022/01/26 07:45:41;;;;;;;28.47;9.87;;;2.00;97.30;;;;;;5054253;28;21061;-87
2022/01/26 07:48:08;;;;;;;26.67;8.37;;;2.00;97.30;;;;;;5054449;28;20175;-86
2022/01/26 07:50:34;;;;;;;26.57;7.90;;;2.00;97.30;;;;;;5054757;28;20967;-85
2022/01/26 07:53:01;;;;;;;29.10;8.70;;;2.10;97.30;;;;;;5054483;28;20409;-87
2022/01/26 07:55:26;;;;;;;29.40;10.73;;;2.10;97.30;;;;;;5071977;28;20437;-86
2022/01/26 07:57:54;;;;;;;32.23;9.90;;;2.10;97.30;;;;;;5054389;28;20512;-86
2022/01/26 08:00:20;;;;;;;32.53;9.40;;;2.10;97.30;;;;;;5072149;28;20198;-86
2022/01/26 08:02:46;;;;;;;29.50;10.03;;;2.20;97.30;;;;;;5074197;28;20409;-86
2022/01/26 08:05:13;;;;;;;29.90;7.90;;;2.20;97.30;;;;;;5058622;28;20715;-86
2022/01/26 08:07:38;;;;;;;38.23;10.27;;;2.20;97.30;;;;;;5052836;28;20437;-85
2022/01/26 08:10:06;;;;;;;27.30;9.50;;;2.20;97.30;;;;;;5052148;28;20434;-87
2022/01/26 08:12:32;;;;;;;27.53;9.97;;;2.30;97.30;;;;;;5052022;28;20179;-87
2022/01/26 08:14:57;;;;;;;28.87;11.00;;;2.30;97.30;;;;;;5051662;28;20855;-87
2022/01/26 08:17:23;;;;;;;27.97;9.00;;;2.30;97.30;;;;;;5051976;28;20289;-87
2022/01/26 08:19:52;;;;;;;42.17;9.97;;;2.40;97.30;;;;;;5052240;28;20195;-87
2022/01/26 08:22:19;;;;;;;26.83;9.77;;;2.40;97.30;;;;;;5051755;28;20712;-85
2022/01/26 08:24:45;;;;;;;26.60;8.83;;;2.40;97.30;;;;;;5051689;28;20412;-88
2022/01/26 08:27:13;;;;;;;35.60;12.10;;;2.40;97.30;;;;;;5054675;28;20424;-87
2022/01/26 08:29:42;;;;;;;23.20;8.07;;;2.40;97.30;;;;;;5053659;28;20437;-86
2022/01/26 08:32:09;;;;;;;28.43;7.90;;;2.30;97.30;;;;;;5054173;28;20416;-87
2022/01/26 08:34:35;;;;;;;23.17;8.47;;;2.30;97.30;;;;;;5054383;28;20420;-85
2022/01/26 08:37:00;;;;;;;30.77;8.80;;;2.20;97.30;;;;;;5072146;28;20502;-87
2022/01/26 08:39:26;;;;;;;33.33;9.80;;;2.20;97.30;;;;;;5053987;28;22182;-86
2022/01/26 08:41:51;;;;;;;26.40;8.30;;;2.30;97.30;;;;;;5054258;28;20258;-86
2022/01/26 08:44:17;;;;;;;27.37;7.93;;;2.30;97.30;;;;;;5059658;28;20171;-87
2022/01/26 08:46:43;;;;;;;27.37;8.77;;;2.30;97.30;;;;;;5054225;28;20183;-86
2022/01/26 08:49:09;;;;;;;24.03;7.70;;;2.30;97.30;;;;;;5057896;28;20274;-87
2022/01/26 08:51:35;;;;;;;32.27;9.03;;;2.30;97.30;;;;;;5057852;28;20178;-87
2022/01/26 08:54:01;;;;;;;27.90;8.97;;;2.30;97.30;;;;;;5057586;28;20421;-87
2022/01/26 08:56:27;;;;;;;23.60;7.40;;;2.30;97.30;;;;;;5057576;28;20461;-87
2022/01/26 08:58:53;;;;;;;20.23;7.23;;;2.30;97.30;;;;;;5057814;28;20546;-87
2022/01/26 09:01:19;;;;;;;23.80;6.83;;;2.30;97.30;;;;;;5075389;28;20808;-87
2022/01/26 09:03:44;;;;;;;16.47;7.10;;;2.40;97.30;;;;;;5075268;28;20409;-86
2022/01/26 09:06:10;;;;;;;29.43;7.37;;;2.40;97.30;;;;;;5057553;28;20179;-86
2022/01/26 09:08:41;;;;;;;22.40;7.40;;;2.40;97.30;;;;;;5057215;28;20671;-87
2022/01/26 09:11:08;;;;;;;20.97;7.37;;;2.40;97.30;;;;;;5057358;28;20574;-86
2022/01/26 09:13:35;;;;;;;20.03;7.07;;;2.60;97.30;;;;;;5057275;28;20417;-86
2022/01/26 09:16:06;;;;;;;26.47;7.77;;;2.60;97.30;;;;;;5075124;28;20543;-87
2022/01/26 09:18:40;;;;;;;25.93;7.17;;;2.60;97.30;;;;;;5057580;28;20898;-87
2022/01/26 09:21:06;;;;;;;26.33;7.03;;;2.60;97.30;;;;;;5057183;28;20444;-86
2022/01/26 09:23:32;;;;;;;23.10;6.47;;;2.60;97.30;;;;;;5062039;28;20425;-87
2022/01/26 09:25:57;;;;;;;26.97;8.20;;;2.60;97.30;;;;;;5057099;28;20417;-87
2022/01/26 09:28:24;;;;;;;23.83;7.10;;;2.60;97.30;;;;;;5075082;28;20918;-87
2022/01/26 09:30:50;;;;;;;16.27;5.30;;;2.60;97.30;;;;;;5057039;28;20205;-87
2022/01/26 09:33:16;;;;;;;24.00;6.07;;;2.60;97.30;;;;;;5075353;28;20409;-86
2022/01/26 09:35:41;;;;;;;21.97;6.93;;;2.60;97.30;;;;;;5074628;28;20412;-86
2022/01/26 09:38:07;;;;;;;23.03;6.60;;;2.60;97.30;;;;;;5056825;28;20175;-88
2022/01/26 09:40:33;;;;;;;18.50;6.30;;;2.60;97.30;;;;;;5056653;28;20238;-87
2022/01/26 09:42:59;;;;;;;30.43;7.80;;;2.60;97.30;;;;;;5074638;28;20163;-87
2022/01/26 09:45:25;;;;;;;23.43;8.97;;;2.60;97.30;;;;;;5056873;28;20440;-87
2022/01/26 09:47:50;;;;;;;25.80;7.03;;;2.70;97.30;;;;;;5074606;28;20456;-86
2022/01/26 09:50:16;;;;;;;22.00;7.00;;;2.70;97.30;;;;;;5074620;28;20203;-87
2022/01/26 09:52:47;;;;;;;32.00;8.17;;;2.60;97.30;;;;;;5057135;28;20400;-87
2022/01/26 09:55:12;;;;;;;21.30;7.40;;;2.60;97.30;;;;;;5056825;28;20225;-87
2022/01/26 09:57:40;;;;;;;23.40;7.03;;;2.50;97.30;;;;;;5056589;28;20536;-87
2022/01/26 10:00:08;;;;;;;19.50;7.33;;;2.60;97.30;;;;;;5056057;28;20690;-88
2022/01/26 10:02:35;;;;;;;22.47;8.00;;;2.60;97.30;;;;;;5056085;28;21231;-87
2022/01/26 10:05:10;;;;;;;21.87;7.70;;;2.60;97.30;;;;;;5056247;28;20406;-87
2022/01/26 10:08:01;;;;;;;23.03;7.57;;;2.60;97.30;;;;;;5056560;28;20445;-87
2022/01/26 10:18:55;;;;;;;21.20;5.60;;;2.50;97.30;;;;;;5042842;28;20410;-87
2022/01/26 10:21:21;;;;;;;19.40;7.23;;;2.50;97.30;;;;;;5055724;28;20433;-87
2022/01/26 10:23:46;;;;;;;21.77;6.07;;;2.50;97.30;;;;;;5056123;28;20414;-86
2022/01/26 10:26:21;;;;;;;17.97;6.40;;;2.50;97.30;;;;;;5056026;28;20204;-86
2022/01/26 10:28:54;;;;;;;17.87;6.17;;;2.50;97.30;;;;;;5056349;28;20162;-86
2022/01/26 10:31:23;;;;;;;20.37;5.83;;;2.50;97.30;;;;;;5055743;28;20429;-86
2022/01/26 10:33:59;;;;;;;26.37;7.10;;;2.50;97.30;;;;;;5055833;28;20432;-87
2022/01/26 10:36:46;;;;;;;19.60;6.07;;;2.50;97.30;;;;;;5055716;28;20444;-87
2022/01/26 10:39:19;;;;;;;17.83;5.17;;;2.40;97.30;;;;;;5055455;28;20559;-86
2022/01/26 10:41:46;;;;;;;13.73;4.70;;;2.40;97.30;;;;;;5055707;28;20551;-87
2022/01/26 10:44:11;;;;;;;17.90;6.07;;;2.40;97.30;;;;;;5073375;28;20492;-86
2022/01/26 10:46:40;;;;;;;16.57;6.30;;;2.40;97.30;;;;;;5055619;28;20445;-87
2022/01/26 10:54:12;;;;;;;19.70;7.73;;;2.40;97.30;;;;;;5073655;28;20966;-87
2022/01/26 10:56:38;;;;;;;33.20;8.33;;;2.40;97.30;;;;;;5055575;28;20464;-87
2022/01/26 10:59:04;;;;;;;26.20;6.33;;;2.30;97.30;;;;;;5055610;28;20931;-87
2022/01/26 11:01:30;;;;;;;20.43;6.73;;;2.40;97.30;;;;;;5073496;28;20491;-87
2022/01/26 11:03:55;;;;;;;30.13;9.43;;;2.40;97.30;;;;;;5073517;28;20181;-86
2022/01/26 11:06:21;;;;;;;25.50;5.90;;;2.40;97.30;;;;;;5055339;28;20221;-87
2022/01/26 11:08:48;;;;;;;31.70;7.07;;;2.40;97.30;;;;;;5055677;28;20185;-86
2022/01/26 11:11:24;;;;;;;23.80;6.90;;;2.40;97.30;;;;;;5055145;28;20223;-86
2022/01/26 11:13:50;;;;;;;23.77;5.97;;;2.40;97.30;;;;;;5065293;28;20484;-86
2022/01/26 11:16:18;;;;;;;27.83;7.60;;;2.40;97.30;;;;;;5073079;28;20602;-87
2022/01/26 11:18:53;;;;;;;19.90;5.70;;;2.40;97.30;;;;;;5055091;28;20418;-86
2022/01/26 11:21:33;;;;;;;25.97;6.70;;;2.40;97.30;;;;;;5076418;28;20427;-87
2022/01/26 11:24:10;;;;;;;24.07;7.00;;;2.40;97.30;;;;;;5080541;28;20422;-87
2022/01/26 11:26:38;;;;;;;25.93;7.37;;;2.50;97.30;;;;;;5093805;28;20427;-87
2022/01/26 11:29:14;;;;;;;26.53;6.90;;;2.50;97.30;;;;;;5075377;28;20501;-86
2022/01/26 11:31:40;;;;;;;26.43;8.03;;;2.50;97.30;;;;;;5075185;28;20766;-87
2022/01/26 11:34:06;;;;;;;29.43;7.60;;;2.50;97.30;;;;;;5075080;28;20462;-87
2022/01/26 11:36:32;;;;;;;22.60;6.80;;;2.50;97.30;;;;;;5074889;28;20456;-86
2022/01/26 11:47:20;;;;;;;27.17;7.00;;;2.40;97.30;;;;;;5093009;28;20465;-87
2022/01/26 11:49:46;;;;;;;27.73;9.63;;;2.40;97.30;;;;;;5075334;28;20439;-86
2022/01/26 11:52:21;;;;;;;24.40;6.97;;;2.40;97.30;;;;;;5074550;28;20423;-86
2022/01/26 11:54:53;;;;;;;22.10;7.00;;;2.40;97.30;;;;;;5074343;28;20957;-87
2022/01/26 11:57:22;;;;;;;30.53;8.40;;;2.40;97.30;;;;;;5074673;28;20463;-87
2022/01/26 12:00:01;;;;;;;22.90;6.27;;;2.40;97.30;;;;;;5074638;28;20428;-86
2022/01/26 12:05:18;;;;;;;28.00;8.20;;;2.30;97.30;;;;;;5092909;28;20421;-87
2022/01/26 12:07:59;;;;;;;19.20;6.73;;;2.20;97.30;;;;;;5074930;28;20404;-87
2022/01/26 12:10:29;;;;;;;22.33;7.10;;;2.20;97.30;;;;;;5074606;28;20790;-87
2022/01/26 12:13:06;;;;;;;23.53;6.30;;;2.20;97.30;;;;;;5092439;28;20405;-87
2022/01/26 12:15:46;;;;;;;14.83;5.50;;;2.20;97.30;;;;;;5092683;28;20942;-87
2022/01/26 12:38:25;;;;;;;17.40;6.43;;;2.10;97.30;;;;;;5098456;28;20405;-87
2022/01/26 12:43:44;;;;;;;16.40;5.87;;;2.10;97.30;;;;;;5097957;28;20435;-87
2022/01/26 12:46:13;;;;;;;21.80;6.90;;;2.10;97.30;;;;;;5078862;28;20558;-86
2022/01/26 12:48:40;;;;;;;17.37;6.13;;;2.10;97.30;;;;;;5078474;28;20417;-87
2022/01/26 12:51:07;;;;;;;20.93;6.33;;;2.10;97.30;;;;;;5078272;28;20451;-88
2022/01/26 12:53:35;;;;;;;20.57;7.47;;;2.10;97.30;;;;;;5097172;28;20404;-87
2022/01/26 12:56:06;;;;;;;20.13;6.83;;;2.00;97.30;;;;;;5083441;28;20961;-87
2022/01/26 12:58:40;;;;;;;16.53;5.60;;;2.00;97.30;;;;;;5077915;28;20903;-87
2022/01/26 13:01:14;;;;;;;20.90;6.53;;;2.00;97.30;;;;;;5078111;28;20446;-87
2022/01/26 13:03:41;;;;;;;18.47;6.00;;;2.00;97.30;;;;;;5096162;28;20404;-87
2022/01/26 13:06:25;;;;;;;19.93;5.63;;;2.00;97.30;;;;;;5078003;28;20412;-87
2022/01/26 13:08:52;;;;;;;18.13;6.63;;;2.00;97.30;;;;;;5077453;28;20518;-86
2022/01/26 13:11:29;;;;;;;16.87;6.33;;;2.00;97.30;;;;;;5077862;28;20468;-86
2022/01/26 13:14:14;;;;;;;31.37;6.77;;;1.90;97.30;;;;;;5077875;28;20416;-86
2022/01/26 13:16:46;;;;;;;16.27;5.60;;;1.90;97.30;;;;;;5078445;28;20452;-86
2022/01/26 13:21:57;;;;;;;21.97;7.20;;;1.90;97.30;;;;;;5095822;28;20446;-87
2022/01/26 13:24:55;;;;;;;18.60;6.63;;;1.80;97.30;;;;;;5082324;28;20178;-87
2022/01/26 13:27:34;;;;;;;19.47;5.70;;;1.80;97.30;;;;;;5096366;28;20405;-87
2022/01/26 13:30:19;;;;;;;21.83;7.33;;;1.90;97.30;;;;;;5078186;28;20444;-87
2022/01/26 13:33:14;;;;;;;22.90;7.43;;;1.90;97.30;;;;;;5076782;28;20416;-87
2022/01/26 13:49:17;;;;;;;23.27;6.57;;;1.90;97.30;;;;;;5095692;28;20780;-87
2022/01/26 13:56:52;;;;;;;35.63;8.40;;;1.80;97.30;;;;;;5095578;28;20439;-87
2022/01/26 13:59:25;;;;;;;38.77;9.50;;;1.70;97.30;;;;;;5076957;28;20969;-87
2022/01/26 14:01:51;;;;;;;30.37;8.53;;;1.70;97.30;;;;;;5077031;28;21035;-87
2022/01/26 14:04:18;;;;;;;29.23;7.40;;;1.70;97.30;;;;;;5076785;28;20416;-87
2022/01/26 14:06:45;;;;;;;26.30;7.37;;;1.70;97.30;;;;;;5095147;28;20413;-87
2022/01/26 14:09:11;;;;;;;32.93;8.23;;;1.70;97.30;;;;;;5078199;28;20852;-87
2022/01/26 14:11:37;;;;;;;31.87;9.87;;;1.70;97.30;;;;;;5077483;28;20508;-87
2022/01/26 14:14:04;;;;;;;32.03;7.20;;;1.60;97.30;;;;;;5077384;28;20649;-87
2022/01/26 14:16:43;;;;;;;22.67;7.70;;;1.60;97.30;;;;;;5076940;28;20460;-87
2022/01/26 14:19:25;;;;;;;30.67;8.33;;;1.50;97.30;;;;;;5077118;28;20446;-87
2022/01/26 14:27:38;;;;;;;36.43;8.47;;;1.50;97.30;;;;;;5088998;28;20424;-88
2022/01/26 14:30:18;;;;;;;31.23;9.00;;;1.50;97.30;;;;;;5076272;28;20949;-87
2022/01/26 14:33:04;;;;;;;29.23;9.10;;;1.40;97.30;;;;;;5095227;28;20397;-87
2022/01/26 14:35:49;;;;;;;29.97;7.43;;;1.40;97.30;;;;;;5094680;28;20416;-87
2022/01/26 14:54:42;;;;;;;33.47;9.30;;;1.40;97.30;;;;;;5094889;28;20598;-88
2022/01/26 15:00:51;;;;;;;39.13;10.57;;;1.40;97.30;;;;;;5094879;28;20424;-87
2022/01/26 15:30:14;;;;;;;37.00;12.20;;;1.50;97.30;;;;;;5097660;28;20953;-88
2022/01/26 15:41:06;;;;;;;44.17;12.63;;;1.50;97.30;;;;;;5093132;28;20525;-88
2022/01/26 15:48:51;;;;;;;42.53;14.90;;;1.50;97.30;;;;;;5093162;28;20506;-87
2022/01/26 16:05:13;;;;;;;57.43;14.33;;;1.40;97.30;;;;;;5092583;28;20404;-88
2022/01/26 16:07:45;;;;;;;63.10;19.03;;;1.40;97.30;;;;;;5092255;28;20424;-87
2022/01/26 17:26:53;;;;;;;42.10;12.60;;;1.30;97.30;;;;;;5096049;28;20418;-87
2022/01/26 17:55:10;;;;;;;37.67;10.83;;;1.40;97.30;;;;;;5103465;28;20432;-86
2022/01/26 18:15:49;;;;;;;49.00;14.77;;;1.40;97.30;;;;;;5094773;28;20438;-87
2022/01/26 18:26:35;;;;;;;50.37;16.70;;;1.50;97.30;;;;;;5095151;28;20458;-87
2022/01/26 18:31:52;;;;;;;53.97;16.63;;;1.50;97.30;;;;;;5077954;28;20404;-87
2022/01/26 18:40:46;;;;;;;50.33;13.50;;;1.50;97.30;;;;;;5079256;28;20834;-87
2022/01/26 18:51:24;;;;;;;48.63;15.70;;;1.50;97.30;;;;;;5094355;28;20460;-87
2022/01/26 18:53:50;;;;;;;49.13;14.27;;;1.50;97.30;;;;;;5077126;28;20416;-87
2022/01/26 18:56:15;;;;;;;49.60;15.80;;;1.60;97.30;;;;;;5075503;28;20206;-87
2022/01/26 18:58:41;;;;;;;51.87;15.63;;;1.60;97.30;;;;;;5074704;28;20278;-87
2022/01/26 19:01:06;;;;;;;70.37;18.70;;;1.60;97.30;;;;;;5075650;28;20573;-87
2022/01/26 19:03:32;;;;;;;56.87;16.20;;;1.60;97.30;;;;;;5073732;28;20197;-87
2022/01/26 19:06:01;;;;;;;52.67;17.10;;;1.60;97.30;;;;;;5063776;28;20177;-87
2022/01/26 19:08:28;;;;;;;61.53;17.10;;;1.60;97.30;;;;;;5055142;28;20178;-86
2022/01/26 19:10:54;;;;;;;64.40;14.33;;;1.60;97.30;;;;;;5055047;28;20438;-87
2022/01/26 19:13:25;;;;;;;64.93;18.97;;;1.90;97.30;;;;;;5073251;28;20409;-87
2022/01/26 19:15:53;;;;;;;56.00;15.37;;;1.90;97.30;;;;;;5055428;28;20172;-88
2022/01/26 19:18:26;;;;;;;51.90;16.17;;;1.80;97.30;;;;;;5055644;28;20466;-88
2022/01/26 19:21:07;;;;;;;67.27;16.80;;;1.80;97.30;;;;;;5055012;28;20456;-87